Time;durP1;ratioP1;P1;durP2;ratioP2;P2;SDS_P1;SDS_P2;PMS_P1;PMS_P2;Temp;Humidity;BMP_temperature;BMP_pressure;BME280_temperature;BME280_humidity;BME280_pressure;Samples;Min_cycle;Max_cycle;Signal;HPM_P1;HPM_P2
2023/12/07 00:00:58;;;;;;;499.45;243.73;;;;;;;1.57;100.00;98152.72;5027056;28;20158;-54
2023/12/07 00:03:24;;;;;;;483.75;243.88;;;;;;;1.62;100.00;98153.75;5028202;28;20437;-54
2023/12/07 00:05:49;;;;;;;527.55;243.60;;;;;;;1.68;100.00;98163.34;5029238;28;20052;-55
2023/12/07 00:08:14;;;;;;;480.33;243.18;;;;;;;1.62;100.00;98153.75;5029470;28;20025;-54
2023/12/07 00:10:40;;;;;;;438.88;238.90;;;;;;;1.60;100.00;98160.50;5028888;28;20047;-54
2023/12/07 00:13:05;;;;;;;554.10;244.27;;;;;;;1.65;100.00;98156.44;5030544;28;20055;-55
2023/12/07 00:15:31;;;;;;;466.10;239.07;;;;;;;1.62;100.00;98158.88;5030361;28;20029;-55
2023/12/07 00:17:56;;;;;;;461.15;240.25;;;;;;;1.60;100.00;98155.38;5029788;28;20036;-54
2023/12/07 00:20:21;;;;;;;495.38;233.88;;;;;;;1.54;100.00;98158.63;5027289;28;20040;-54
2023/12/07 00:22:47;;;;;;;484.00;239.20;;;;;;;1.53;100.00;98154.28;5028098;28;20065;-54
2023/12/07 00:25:13;;;;;;;431.63;234.15;;;;;;;1.51;100.00;98161.06;5028112;28;20057;-55
2023/12/07 00:27:38;;;;;;;492.17;241.10;;;;;;;1.61;100.00;98157.16;5027209;28;20029;-54
2023/12/07 00:30:04;;;;;;;507.98;242.48;;;;;;;1.59;100.00;98156.19;5029886;28;20075;-55
2023/12/07 00:32:29;;;;;;;449.00;236.02;;;;;;;1.63;100.00;98160.63;5028477;28;20063;-53
2023/12/07 00:34:55;;;;;;;539.70;245.93;;;;;;;1.59;100.00;98158.75;5028084;28;20210;-53
2023/12/07 00:37:21;;;;;;;466.77;236.88;;;;;;;1.47;100.00;98164.34;5029778;28;20034;-53
2023/12/07 00:39:46;;;;;;;454.52;240.77;;;;;;;1.51;100.00;98162.75;5027779;28;20033;-55
2023/12/07 00:42:11;;;;;;;478.08;241.40;;;;;;;1.52;100.00;98167.94;5029235;28;20056;-54
2023/12/07 00:44:41;;;;;;;431.40;240.45;;;;;;;1.58;100.00;98164.72;5029714;28;20100;-54
2023/12/07 00:47:06;;;;;;;530.83;242.90;;;;;;;1.60;100.00;98164.78;5028001;28;20033;-55
2023/12/07 00:49:32;;;;;;;580.00;247.40;;;;;;;1.60;100.00;98170.75;5029421;28;20378;-54
2023/12/07 00:51:57;;;;;;;515.08;246.05;;;;;;;1.55;100.00;98172.28;5029340;28;20459;-54
2023/12/07 00:54:22;;;;;;;458.08;245.63;;;;;;;1.54;100.00;98175.69;5030067;28;20110;-54
2023/12/07 00:56:48;;;;;;;508.88;245.63;;;;;;;1.58;100.00;98172.41;5029452;28;20281;-53
2023/12/07 00:59:13;;;;;;;421.05;243.88;;;;;;;1.57;100.00;98178.38;5029402;28;20025;-54
2023/12/07 01:01:38;;;;;;;424.83;239.23;;;;;;;1.47;100.00;98183.97;5028726;28;20036;-54
2023/12/07 01:04:05;;;;;;;509.17;245.70;;;;;;;1.48;100.00;98191.72;5028304;28;20112;-60
2023/12/07 01:20:35;;;;;;;476.42;233.77;;;;;;;1.42;100.00;98212.00;5024774;28;20096;-54
2023/12/07 01:23:00;;;;;;;510.30;234.63;;;;;;;1.46;100.00;98205.28;5028402;28;20125;-56
2023/12/07 01:25:26;;;;;;;445.38;233.18;;;;;;;1.51;100.00;98214.00;5028758;28;20120;-54
2023/12/07 01:27:51;;;;;;;519.60;236.85;;;;;;;1.63;100.00;98218.75;5028516;28;20072;-55
2023/12/07 01:30:17;;;;;;;450.02;238.32;;;;;;;1.66;100.00;98218.81;5027579;28;20486;-54
2023/12/07 01:32:42;;;;;;;420.65;226.27;;;;;;;1.62;100.00;98214.41;5029885;28;20029;-54
2023/12/07 01:35:08;;;;;;;573.47;238.10;;;;;;;1.67;100.00;98220.59;5027497;28;20020;-56
2023/12/07 01:37:33;;;;;;;407.45;231.57;;;;;;;1.60;100.00;98227.16;5029743;28;20020;-55
2023/12/07 01:39:58;;;;;;;527.33;239.52;;;;;;;1.72;100.00;98228.44;5028680;28;20029;-54
2023/12/07 01:42:24;;;;;;;486.67;237.68;;;;;;;1.78;100.00;98231.25;5025904;28;20033;-55
2023/12/07 01:44:49;;;;;;;470.40;236.40;;;;;;;1.79;100.00;98233.81;5033288;28;20400;-53
2023/12/07 01:47:15;;;;;;;432.70;235.45;;;;;;;1.76;100.00;98232.84;5028344;28;20575;-54
2023/12/07 01:49:41;;;;;;;519.78;241.43;;;;;;;1.74;100.00;98242.22;5027910;28;20105;-55
2023/12/07 01:52:08;;;;;;;467.77;239.68;;;;;;;1.75;100.00;98241.38;5025806;28;20469;-55
2023/12/07 01:54:35;;;;;;;441.15;240.38;;;;;;;1.74;100.00;98249.91;5029325;28;20029;-54
2023/12/07 01:57:00;;;;;;;611.83;247.40;;;;;;;1.67;100.00;98247.09;5027313;28;20234;-54
2023/12/07 01:59:25;;;;;;;504.30;241.73;;;;;;;1.74;100.00;98249.91;5029719;28;20576;-54
2023/12/07 02:01:51;;;;;;;472.35;241.80;;;;;;;1.78;100.00;98241.50;5026482;28;20082;-55
2023/12/07 02:04:17;;;;;;;470.02;243.27;;;;;;;1.80;100.00;98237.28;5029187;28;20155;-54
2023/12/07 02:06:42;;;;;;;430.33;238.73;;;;;;;1.76;100.00;98238.88;5028516;28;20036;-54
2023/12/07 02:09:08;;;;;;;535.33;245.63;;;;;;;1.74;100.00;98249.91;5025879;28;20353;-55
2023/12/07 02:11:34;;;;;;;473.27;241.60;;;;;;;1.82;100.00;98248.47;5028252;28;20616;-55
2023/12/07 02:14:00;;;;;;;483.95;234.38;;;;;;;1.81;100.00;98251.84;5028318;28;20033;-54
2023/12/07 02:16:50;;;;;;;479.55;236.95;;;;;;;1.85;100.00;98253.69;5027572;28;20460;-55
2023/12/07 02:19:39;;;;;;;407.73;230.90;;;;;;;1.77;100.00;98255.13;5026004;28;20044;-54
2023/12/07 02:22:12;;;;;;;495.88;239.13;;;;;;;1.86;100.00;98250.34;5027121;28;20619;-55
2023/12/07 02:24:40;;;;;;;442.70;237.35;;;;;;;1.90;100.00;98248.75;5027434;28;20037;-55
2023/12/07 02:27:05;;;;;;;586.33;241.98;;;;;;;1.77;100.00;98256.00;5027827;28;20302;-54
2023/12/07 02:29:30;;;;;;;454.27;234.82;;;;;;;1.74;100.00;98255.03;5032402;28;20041;-54
2023/12/07 02:31:56;;;;;;;516.45;242.82;;;;;;;1.82;100.00;98256.19;5029302;28;20037;-54
2023/12/07 02:34:21;;;;;;;466.25;240.40;;;;;;;1.89;100.00;98262.41;5032317;28;20040;-56
2023/12/07 02:36:49;;;;;;;470.85;240.63;;;;;;;1.93;100.00;98257.41;5033348;28;20673;-55
2023/12/07 02:39:15;;;;;;;443.73;238.35;;;;;;;1.93;100.00;98252.28;5029969;28;20340;-54
2023/12/07 02:41:42;;;;;;;445.75;239.63;;;;;;;1.91;100.00;98253.94;5029713;28;20052;-54
2023/12/07 02:44:08;;;;;;;477.83;238.90;;;;;;;1.87;100.00;98254.66;5033142;28;20072;-55
2023/12/07 02:46:33;;;;;;;474.52;243.15;;;;;;;1.84;100.00;98258.78;5031247;28;20060;-55
2023/12/07 02:48:59;;;;;;;499.02;243.13;;;;;;;1.82;100.00;98251.06;5030332;28;20530;-55
2023/12/07 02:51:24;;;;;;;457.92;240.20;;;;;;;1.74;100.00;98255.03;5030731;28;20048;-55
2023/12/07 02:53:50;;;;;;;505.90;241.32;;;;;;;1.65;100.00;98256.44;5032599;28;20113;-56
2023/12/07 02:56:15;;;;;;;423.83;234.10;;;;;;;1.70;100.00;98254.03;5031622;28;20320;-55
2023/12/07 02:58:40;;;;;;;414.45;236.02;;;;;;;1.47;100.00;98256.63;5031011;28;20036;-54
2023/12/07 03:01:06;;;;;;;549.40;241.60;;;;;;;1.68;100.00;98260.81;5028801;28;20041;-55
2023/12/07 03:03:31;;;;;;;451.25;237.70;;;;;;;1.79;100.00;98264.59;5030165;28;20409;-55
2023/12/07 03:05:56;;;;;;;488.38;241.57;;;;;;;1.85;100.00;98261.41;5029807;28;20566;-54
2023/12/07 03:08:22;;;;;;;463.38;242.65;;;;;;;1.80;100.00;98265.50;5032292;28;20132;-55
2023/12/07 03:10:47;;;;;;;435.65;239.98;;;;;;;1.88;100.00;98266.66;5031005;28;20106;-55
2023/12/07 03:13:13;;;;;;;435.77;241.35;;;;;;;1.88;100.00;98269.22;5030930;28;20660;-54
2023/12/07 03:15:39;;;;;;;488.80;243.45;;;;;;;1.90;100.00;98272.69;5030803;28;20083;-55
2023/12/07 03:18:05;;;;;;;471.48;242.10;;;;;;;1.85;100.00;98269.09;5028915;28;20029;-56
2023/12/07 03:20:30;;;;;;;417.55;239.23;;;;;;;1.79;100.00;98269.75;5026541;28;20562;-55
2023/12/07 03:22:56;;;;;;;526.65;244.75;;;;;;;1.62;100.00;98271.69;5030101;28;20021;-55
2023/12/07 03:25:21;;;;;;;446.70;242.98;;;;;;;1.68;100.00;98277.03;5030132;28;20611;-55
2023/12/07 03:27:46;;;;;;;486.48;245.48;;;;;;;1.62;100.00;98274.25;5030417;28;20060;-55
2023/12/07 03:30:12;;;;;;;567.55;248.98;;;;;;;1.64;100.00;98274.31;5027407;28;20029;-56
2023/12/07 03:32:38;;;;;;;425.52;241.98;;;;;;;1.42;100.00;98279.50;5032759;28;20054;-55
2023/12/07 03:35:04;;;;;;;524.45;245.52;;;;;;;1.41;100.00;98277.78;5029273;28;20078;-54
2023/12/07 03:37:29;;;;;;;521.35;247.55;;;;;;;1.37;100.00;98281.03;5027868;28;20405;-54
2023/12/07 03:39:54;;;;;;;436.88;240.60;;;;;;;1.26;100.00;98282.31;5027789;28;20331;-55
2023/12/07 03:42:20;;;;;;;449.08;243.10;;;;;;;1.35;100.00;98287.81;5029722;28;20302;-56
2023/12/07 03:44:45;;;;;;;485.95;245.00;;;;;;;1.33;100.00;98291.13;5029566;28;20037;-54
2023/12/07 03:47:10;;;;;;;503.00;247.02;;;;;;;1.12;100.00;98289.47;5029770;28;20409;-54
2023/12/07 03:49:36;;;;;;;501.15;247.60;;;;;;;1.04;100.00;98286.63;5029211;28;20033;-55
2023/12/07 03:52:01;;;;;;;568.03;250.90;;;;;;;0.96;100.00;98288.84;5028915;28;20266;-54
2023/12/07 03:54:27;;;;;;;418.75;244.50;;;;;;;0.90;100.00;98294.59;5031016;28;20310;-54
2023/12/07 03:56:52;;;;;;;489.45;247.30;;;;;;;0.97;100.00;98293.16;5029829;28;20029;-53
2023/12/07 03:59:17;;;;;;;494.13;246.27;;;;;;;1.05;100.00;98293.47;5027655;28;20025;-54
2023/12/07 04:01:43;;;;;;;441.98;243.18;;;;;;;1.03;100.00;98289.97;5048328;28;20135;-54
2023/12/07 04:04:08;;;;;;;527.05;250.23;;;;;;;1.13;100.00;98296.34;5028593;28;20067;-54
2023/12/07 04:06:33;;;;;;;468.70;245.85;;;;;;;1.12;100.00;98300.56;5027442;28;20656;-54
2023/12/07 04:08:59;;;;;;;505.27;248.85;;;;;;;1.16;100.00;98299.88;5027973;28;20123;-54
2023/12/07 04:11:24;;;;;;;429.77;246.43;;;;;;;1.08;100.00;98303.81;5030289;28;20273;-58
2023/12/07 04:13:50;;;;;;;505.05;250.52;;;;;;;1.02;100.00;98294.25;5028961;28;20034;-55
2023/12/07 04:16:16;;;;;;;518.47;252.68;;;;;;;1.03;100.00;98300.22;5028196;28;20110;-53
2023/12/07 04:18:42;;;;;;;457.35;248.82;;;;;;;0.95;100.00;98302.47;5030611;28;20021;-53
2023/12/07 04:21:07;;;;;;;578.42;258.35;;;;;;;0.80;100.00;98306.97;5027557;28;20582;-53
2023/12/07 04:23:33;;;;;;;429.75;249.80;;;;;;;0.75;100.00;98314.50;5029704;28;20124;-55
2023/12/07 04:25:58;;;;;;;460.27;248.18;;;;;;;0.76;100.00;98316.22;5026989;28;20554;-53
2023/12/07 04:28:23;;;;;;;491.20;252.95;;;;;;;0.86;100.00;98323.47;5029039;28;20292;-54
2023/12/07 04:30:49;;;;;;;459.27;250.68;;;;;;;0.96;100.00;98322.16;5027205;28;20049;-54
2023/12/07 04:33:14;;;;;;;551.88;256.25;;;;;;;1.01;100.00;98319.78;5026239;28;20506;-53
2023/12/07 04:35:40;;;;;;;468.48;254.25;;;;;;;1.10;100.00;98317.59;5030600;28;20206;-54
2023/12/07 04:38:05;;;;;;;542.38;254.68;;;;;;;0.99;100.00;98317.16;5029721;28;20057;-54
2023/12/07 04:40:30;;;;;;;481.85;249.70;;;;;;;1.00;100.00;98315.50;5027819;28;20041;-53
2023/12/07 04:42:55;;;;;;;449.92;248.60;;;;;;;0.95;100.00;98325.53;5027777;28;20479;-53
2023/12/07 04:45:21;;;;;;;449.67;249.15;;;;;;;0.93;100.00;98328.84;5029549;28;20056;-54
2023/12/07 04:47:46;;;;;;;471.13;241.10;;;;;;;0.97;100.00;98334.13;5028926;28;20477;-53
2023/12/07 04:50:12;;;;;;;492.13;246.25;;;;;;;1.08;100.00;98344.81;5026266;28;20499;-54
2023/12/07 04:52:38;;;;;;;445.48;246.90;;;;;;;1.06;100.00;98338.78;5029194;28;20140;-54
2023/12/07 04:55:06;;;;;;;564.60;251.02;;;;;;;1.09;100.00;98331.22;5028930;28;20120;-53
2023/12/07 04:57:31;;;;;;;429.38;244.85;;;;;;;1.01;100.00;98343.69;5028554;28;20095;-53
2023/12/07 04:59:57;;;;;;;443.92;245.90;;;;;;;1.01;100.00;98332.59;5028599;28;20020;-54
2023/12/07 05:02:22;;;;;;;483.92;243.35;;;;;;;1.07;100.00;98334.53;5027187;28;20065;-54
2023/12/07 05:04:47;;;;;;;429.85;235.95;;;;;;;1.09;100.00;98331.22;5028775;28;20033;-54
2023/12/07 05:07:13;;;;;;;509.05;237.23;;;;;;;1.09;100.00;98336.34;5027947;28;20045;-53
2023/12/07 05:09:39;;;;;;;447.10;235.52;;;;;;;1.01;100.00;98333.44;5028209;28;20176;-53
2023/12/07 05:12:05;;;;;;;548.58;246.10;;;;;;;0.95;100.00;98333.22;5027577;28;20033;-54
2023/12/07 05:14:34;;;;;;;449.40;242.43;;;;;;;0.89;100.00;98338.97;5028229;28;20041;-55
2023/12/07 05:17:00;;;;;;;513.55;243.30;;;;;;;0.74;100.00;98335.78;5025879;28;20122;-53
2023/12/07 05:19:26;;;;;;;510.98;247.23;;;;;;;0.63;100.00;98323.41;5029330;28;20643;-53
2023/12/07 05:21:51;;;;;;;477.88;247.23;;;;;;;0.50;100.00;98328.81;5027361;28;20036;-53
2023/12/07 05:24:17;;;;;;;556.25;245.25;;;;;;;0.40;100.00;98331.81;5029106;28;20033;-54
2023/12/07 05:26:46;;;;;;;428.45;239.50;;;;;;;0.37;100.00;98323.19;5027818;28;20033;-54
2023/12/07 05:29:12;;;;;;;475.20;239.15;;;;;;;0.21;100.00;98329.31;5027801;28;20025;-53
2023/12/07 05:31:38;;;;;;;447.25;240.13;;;;;;;0.34;100.00;98338.38;5023980;28;20044;-54
2023/12/07 05:34:04;;;;;;;451.42;239.85;;;;;;;0.43;100.00;98334.47;5029936;28;20483;-53
2023/12/07 05:36:29;;;;;;;476.00;244.02;;;;;;;0.24;100.00;98349.06;5029328;28;20540;-53
2023/12/07 05:38:55;;;;;;;452.35;242.82;;;;;;;0.21;100.00;98346.34;5029385;28;20026;-54
2023/12/07 05:41:20;;;;;;;460.83;239.93;;;;;;;0.29;100.00;98344.16;5026312;28;20041;-54
2023/12/07 05:43:46;;;;;;;449.23;236.52;;;;;;;0.41;100.00;98348.91;5029000;28;20027;-53
2023/12/07 05:46:11;;;;;;;528.10;241.82;;;;;;;0.46;100.00;98349.97;5028126;28;20071;-54
2023/12/07 05:48:36;;;;;;;429.95;237.75;;;;;;;0.51;100.00;98351.91;5029384;28;20027;-53
2023/12/07 05:51:02;;;;;;;497.27;243.40;;;;;;;0.58;100.00;98353.06;5027171;28;20061;-53
2023/12/07 05:53:28;;;;;;;466.02;240.55;;;;;;;0.60;100.00;98355.69;5028600;28;20043;-53
2023/12/07 05:55:54;;;;;;;447.88;244.43;;;;;;;0.72;100.00;98360.44;5025358;28;20687;-54
2023/12/07 05:58:19;;;;;;;537.25;245.25;;;;;;;0.74;100.00;98361.41;5027091;28;20581;-56
2023/12/07 06:00:46;;;;;;;452.08;243.20;;;;;;;0.67;100.00;98351.69;5026722;28;20041;-54
2023/12/07 06:03:15;;;;;;;601.88;256.45;;;;;;;0.79;100.00;98359.91;5030726;28;20116;-54
2023/12/07 06:05:41;;;;;;;510.15;246.57;;;;;;;0.78;100.00;98358.16;5029909;28;20048;-54
2023/12/07 06:08:06;;;;;;;466.50;236.30;;;;;;;0.85;100.00;98365.25;5030238;28;20038;-53
2023/12/07 06:10:32;;;;;;;416.13;236.93;;;;;;;0.90;100.00;98363.75;5030769;28;20505;-53
2023/12/07 06:13:00;;;;;;;519.50;243.35;;;;;;;0.89;100.00;98369.69;5031760;28;20139;-54
2023/12/07 06:15:25;;;;;;;447.45;240.55;;;;;;;0.94;100.00;98362.22;5031242;28;20025;-53
2023/12/07 06:17:50;;;;;;;489.42;238.65;;;;;;;0.97;100.00;98364.03;5035068;28;20032;-53
2023/12/07 06:20:16;;;;;;;592.58;249.85;;;;;;;0.95;100.00;98360.50;5029799;28;20022;-54
2023/12/07 06:22:41;;;;;;;454.60;245.40;;;;;;;0.93;100.00;98360.47;5032268;28;20108;-54
2023/12/07 06:25:08;;;;;;;574.42;249.02;;;;;;;0.92;100.00;98368.09;5028646;28;20116;-53
2023/12/07 06:27:35;;;;;;;500.48;247.45;;;;;;;0.98;100.00;98368.31;5029698;28;20607;-54
2023/12/07 06:30:00;;;;;;;480.92;246.77;;;;;;;0.97;100.00;98367.44;5030254;28;20074;-55
2023/12/07 06:32:26;;;;;;;482.90;250.35;;;;;;;1.03;100.00;98364.25;5028769;28;20041;-53
2023/12/07 06:34:51;;;;;;;503.73;239.80;;;;;;;1.17;100.00;98378.53;5032151;28;20018;-54
2023/12/07 06:37:17;;;;;;;565.72;241.68;;;;;;;1.21;100.00;98366.69;5029882;28;20037;-53
2023/12/07 06:39:43;;;;;;;454.05;236.73;;;;;;;1.17;100.00;98381.09;5031967;28;20869;-55
2023/12/07 06:42:08;;;;;;;537.72;243.18;;;;;;;1.15;100.00;98375.00;5028937;28;20123;-54
2023/12/07 06:44:33;;;;;;;474.88;242.88;;;;;;;1.21;100.00;98379.50;5029781;28;20063;-54
2023/12/07 06:46:59;;;;;;;514.55;240.73;;;;;;;1.25;100.00;98386.50;5030327;28;20227;-55
2023/12/07 06:49:24;;;;;;;511.02;242.57;;;;;;;1.21;100.00;98381.19;5028905;28;20113;-54
2023/12/07 06:51:49;;;;;;;483.15;242.80;;;;;;;1.29;100.00;98384.94;5029481;28;20399;-54
2023/12/07 06:54:15;;;;;;;582.45;251.40;;;;;;;1.35;100.00;98386.88;5029737;28;20068;-55
2023/12/07 06:56:40;;;;;;;443.60;242.57;;;;;;;1.29;100.00;98382.38;5029873;28;20041;-55
2023/12/07 06:59:05;;;;;;;475.52;248.60;;;;;;;1.38;100.00;98385.28;5027289;28;20029;-54
2023/12/07 07:01:31;;;;;;;489.80;246.40;;;;;;;1.47;100.00;98384.81;5028914;28;20131;-56
2023/12/07 07:03:56;;;;;;;452.38;241.90;;;;;;;1.49;100.00;98388.28;5031568;28;20127;-55
2023/12/07 07:06:21;;;;;;;472.75;241.43;;;;;;;1.42;100.00;98400.00;5028885;28;20576;-56
2023/12/07 07:08:47;;;;;;;453.70;242.77;;;;;;;1.46;100.00;98395.88;5029845;28;20032;-56
2023/12/07 07:11:15;;;;;;;514.63;240.23;;;;;;;1.37;100.00;98391.25;5027942;28;20037;-54
2023/12/07 07:13:41;;;;;;;456.38;238.63;;;;;;;1.52;100.00;98390.13;5028717;28;20029;-55
2023/12/07 07:16:09;;;;;;;496.08;241.23;;;;;;;1.54;100.00;98396.16;5029350;28;20040;-55
2023/12/07 07:18:37;;;;;;;424.75;239.60;;;;;;;1.51;100.00;98394.38;5029908;28;20536;-55
2023/12/07 07:21:04;;;;;;;489.85;241.45;;;;;;;1.65;100.00;98397.47;5028991;28;20045;-54
2023/12/07 07:23:29;;;;;;;476.30;240.20;;;;;;;1.76;100.00;98400.44;5028896;28;20448;-56
2023/12/07 07:25:55;;;;;;;443.90;236.77;;;;;;;1.77;100.00;98415.03;5030526;28;20355;-56
2023/12/07 07:28:20;;;;;;;548.22;247.23;;;;;;;1.74;100.00;98404.63;5028319;28;20068;-55
2023/12/07 07:30:45;;;;;;;488.33;243.75;;;;;;;1.67;100.00;98403.53;5027913;28;20501;-55
2023/12/07 07:33:11;;;;;;;494.65;241.80;;;;;;;1.66;100.00;98401.78;5028166;28;20684;-55
2023/12/07 07:35:36;;;;;;;412.50;227.95;;;;;;;1.69;100.00;98408.72;5029097;28;20028;-55
2023/12/07 07:38:01;;;;;;;523.92;235.57;;;;;;;1.68;100.00;98405.25;5028523;28;20131;-55
2023/12/07 07:40:26;;;;;;;410.77;226.05;;;;;;;1.68;100.00;98410.38;5032229;28;20528;-56
2023/12/07 07:42:52;;;;;;;449.55;222.63;;;;;;;1.81;100.00;98410.88;5027231;28;20033;-56
2023/12/07 07:45:17;;;;;;;527.75;231.15;;;;;;;1.58;100.00;98416.00;5027574;28;20390;-56
2023/12/07 07:47:43;;;;;;;419.80;232.10;;;;;;;1.83;100.00;98419.50;5031377;28;20048;-56
2023/12/07 07:50:10;;;;;;;426.17;229.02;;;;;;;1.87;100.00;98418.81;5026198;28;20084;-55
2023/12/07 07:52:35;;;;;;;447.52;230.25;;;;;;;1.82;100.00;98413.50;5028361;28;20037;-56
2023/12/07 07:55:03;;;;;;;456.73;227.23;;;;;;;1.58;100.00;98413.44;5027038;28;20079;-57
2023/12/07 07:57:29;;;;;;;485.70;230.90;;;;;;;1.79;100.00;98415.09;5027555;28;20456;-56
2023/12/07 07:59:54;;;;;;;483.17;225.55;;;;;;;2.01;100.00;98411.63;5028348;28;20530;-54
2023/12/07 08:02:21;;;;;;;512.85;230.38;;;;;;;2.08;100.00;98415.31;5023669;28;20044;-56
2023/12/07 08:04:46;;;;;;;430.50;230.65;;;;;;;2.65;100.00;98413.94;5032033;28;20099;-54
2023/12/07 08:07:12;;;;;;;511.08;239.23;;;;;;;3.15;100.00;98412.16;5032063;28;20110;-55
2023/12/07 08:09:37;;;;;;;417.40;236.80;;;;;;;3.21;100.00;98407.22;5032333;28;20488;-55
2023/12/07 08:12:03;;;;;;;447.23;237.10;;;;;;;3.07;100.00;98409.31;5032414;28;20226;-56
2023/12/07 08:14:28;;;;;;;388.67;235.48;;;;;;;3.06;100.00;98407.56;5032078;28;20557;-56
2023/12/07 08:16:54;;;;;;;404.42;239.63;;;;;;;2.84;100.00;98412.00;5032608;28;20053;-56
2023/12/07 08:19:19;;;;;;;616.97;246.57;;;;;;;2.51;100.00;98413.44;5033500;28;20037;-56
2023/12/07 08:21:45;;;;;;;410.85;238.85;;;;;;;2.56;100.00;98413.63;5033416;28;20494;-55
2023/12/07 08:24:12;;;;;;;409.33;238.18;;;;;;;2.43;100.00;98415.75;5029760;28;20080;-54
2023/12/07 08:26:38;;;;;;;461.15;246.38;;;;;;;2.76;100.00;98418.56;5031605;28;20120;-55
2023/12/07 08:29:03;;;;;;;437.20;244.70;;;;;;;3.16;100.00;98417.38;5032107;28;20179;-54
2023/12/07 08:31:29;;;;;;;422.25;243.77;;;;;;;3.44;100.00;98413.09;5031129;28;20040;-55
2023/12/07 08:33:55;;;;;;;488.15;243.25;;;;;;;3.40;100.00;98416.41;5033710;28;20524;-55
2023/12/07 08:36:20;;;;;;;560.13;250.07;;;;;;;3.29;100.00;98422.88;5030717;28;20052;-56
2023/12/07 08:38:46;;;;;;;406.90;239.63;;;;;;;3.41;100.00;98425.84;5029176;28;20405;-55
2023/12/07 08:41:11;;;;;;;463.67;244.18;;;;;;;3.24;100.00;98427.88;5031794;28;20042;-54
2023/12/07 08:43:36;;;;;;;400.45;237.35;;;;;;;3.39;100.00;98427.53;5031526;28;20079;-55
2023/12/07 08:46:03;;;;;;;424.27;241.75;;;;;;;3.41;100.00;98428.44;5029115;28;20035;-56
2023/12/07 08:48:29;;;;;;;538.00;243.52;;;;;;;3.32;100.00;98430.69;5030381;28;20060;-57
2023/12/07 08:50:54;;;;;;;417.80;239.95;;;;;;;3.24;100.00;98427.88;5032263;28;20033;-57
2023/12/07 08:53:19;;;;;;;460.17;243.45;;;;;;;3.36;100.00;98423.16;5032995;28;20047;-55
2023/12/07 08:55:45;;;;;;;411.70;243.70;;;;;;;3.23;100.00;98421.88;5032087;28;20037;-55
2023/12/07 08:58:10;;;;;;;385.58;242.93;;;;;;;3.10;100.00;98433.44;5031084;28;20210;-57
2023/12/07 09:00:36;;;;;;;407.48;244.15;;;;;;;3.16;100.00;98431.91;5031464;28;20037;-55
2023/12/07 09:03:02;;;;;;;430.77;244.68;;;;;;;3.30;100.00;98429.78;5032498;28;20116;-56
2023/12/07 09:05:27;;;;;;;480.58;246.77;;;;;;;3.14;100.00;98439.56;5028680;28;20119;-55
2023/12/07 09:07:53;;;;;;;464.00;246.90;;;;;;;3.21;100.00;98435.50;5031035;28;20025;-55
2023/12/07 09:10:19;;;;;;;499.08;248.00;;;;;;;3.28;100.00;98431.44;5029838;28;20087;-55
2023/12/07 09:12:44;;;;;;;412.38;244.55;;;;;;;3.24;100.00;98433.88;5032428;28;20033;-56
2023/12/07 09:15:10;;;;;;;414.67;243.65;;;;;;;3.16;100.00;98426.75;5032056;28;20071;-55
2023/12/07 09:17:39;;;;;;;432.25;243.95;;;;;;;3.20;100.00;98423.47;5031266;28;20043;-56
2023/12/07 09:20:07;;;;;;;444.73;247.20;;;;;;;3.30;100.00;98434.94;5031448;28;20401;-55
2023/12/07 09:22:32;;;;;;;487.08;245.55;;;;;;;3.48;100.00;98427.81;5031241;28;20037;-55
2023/12/07 09:24:58;;;;;;;449.40;246.80;;;;;;;3.40;100.00;98434.41;5031259;28;20047;-56
2023/12/07 09:27:24;;;;;;;546.97;253.60;;;;;;;3.48;100.00;98434.63;5029945;28;20060;-56
2023/12/07 09:29:51;;;;;;;453.17;228.55;;;;;;;3.60;100.00;98434.19;5030037;28;20029;-57
2023/12/07 09:32:16;;;;;;;440.10;226.60;;;;;;;3.77;100.00;98426.97;5030118;28;20547;-56
2023/12/07 09:34:41;;;;;;;394.77;218.20;;;;;;;3.86;100.00;98423.81;5030412;28;20030;-57
2023/12/07 09:37:07;;;;;;;468.40;220.73;;;;;;;3.99;100.00;98432.78;5032395;28;20056;-57
2023/12/07 09:39:33;;;;;;;451.33;230.15;;;;;;;3.69;100.00;98429.31;5034282;28;20963;-54
2023/12/07 09:41:59;;;;;;;441.83;232.45;;;;;;;3.88;100.00;98435.03;5032943;28;20532;-56
2023/12/07 09:44:24;;;;;;;530.22;234.20;;;;;;;3.65;100.00;98428.34;5033250;28;20400;-55
2023/12/07 09:46:50;;;;;;;421.95;235.48;;;;;;;3.91;100.00;98424.84;5035350;28;20395;-55
2023/12/07 09:49:16;;;;;;;442.23;237.70;;;;;;;4.22;100.00;98417.13;5032987;28;20083;-56
2023/12/07 09:51:43;;;;;;;423.10;222.82;;;;;;;4.14;100.00;98412.66;5035975;28;20045;-56
2023/12/07 09:54:09;;;;;;;363.48;219.38;;;;;;;4.17;100.00;98412.72;5036138;28;20112;-55
2023/12/07 09:56:34;;;;;;;396.80;221.18;;;;;;;4.23;100.00;98417.19;5032929;28;20132;-55
2023/12/07 09:59:00;;;;;;;448.42;231.40;;;;;;;4.35;100.00;98413.22;5035061;28;20077;-55
2023/12/07 10:01:30;;;;;;;571.40;253.65;;;;;;;3.61;100.00;98411.06;5031825;28;20028;-54
2023/12/07 10:04:14;;;;;;;527.95;252.95;;;;;;;3.05;100.00;98413.56;5034559;28;20563;-56
2023/12/07 10:06:47;;;;;;;448.60;252.50;;;;;;;2.87;100.00;98414.69;5035682;28;20558;-57
2023/12/07 10:09:13;;;;;;;493.85;240.32;;;;;;;2.83;100.00;98413.69;5033478;28;20036;-56
2023/12/07 10:11:40;;;;;;;418.27;229.55;;;;;;;2.75;100.00;98406.53;5030185;28;20037;-54
2023/12/07 10:14:07;;;;;;;453.92;242.73;;;;;;;2.64;100.00;98401.03;5036811;28;20087;-54
2023/12/07 10:16:35;;;;;;;595.85;257.48;;;;;;;2.58;100.00;98400.00;5033558;28;20175;-55
2023/12/07 10:19:19;;;;;;;465.30;252.68;;;;;;;2.53;100.00;98388.66;5034427;28;20029;-54
2023/12/07 10:21:44;;;;;;;465.67;251.82;;;;;;;2.65;100.00;98392.50;5034732;28;20315;-56
2023/12/07 10:24:10;;;;;;;428.70;250.20;;;;;;;2.53;100.00;98390.38;5034616;28;20485;-54
2023/12/07 10:26:38;;;;;;;481.13;249.30;;;;;;;2.50;100.00;98397.97;5031970;28;20068;-56
2023/12/07 10:29:06;;;;;;;463.80;250.68;;;;;;;2.52;100.00;98393.78;5031746;28;20527;-55
2023/12/07 10:31:32;;;;;;;552.83;245.10;;;;;;;2.96;100.00;98389.28;5030108;28;20029;-54
2023/12/07 10:34:00;;;;;;;485.27;240.02;;;;;;;3.47;100.00;98391.75;5033822;28;20048;-56
2023/12/07 10:36:25;;;;;;;532.25;234.50;;;;;;;3.94;100.00;98395.75;5033833;28;20041;-55
2023/12/07 10:38:51;;;;;;;431.92;234.88;;;;;;;4.16;100.00;98394.69;5034796;28;20132;-55
2023/12/07 10:41:18;;;;;;;460.02;231.23;;;;;;;4.03;100.00;98388.28;5030926;28;20086;-54
2023/12/07 10:43:48;;;;;;;403.35;229.88;;;;;;;4.30;100.00;98383.06;5036764;28;20028;-54
2023/12/07 10:46:18;;;;;;;387.75;220.27;;;;;;;4.15;100.00;98382.59;5034735;28;20061;-56
2023/12/07 10:48:48;;;;;;;385.98;227.30;;;;;;;4.62;100.00;98378.75;5036636;28;20021;-55
2023/12/07 10:51:28;;;;;;;391.63;227.65;;;;;;;4.52;100.00;98381.06;5032409;28;20041;-55
2023/12/07 10:53:56;;;;;;;400.23;217.82;;;;;;;4.40;100.00;98379.03;5039588;28;20380;-54
2023/12/07 10:56:49;;;;;;;464.15;218.93;;;;;;;4.04;100.00;98370.31;5031109;28;20037;-56
2023/12/07 10:59:16;;;;;;;387.48;221.20;;;;;;;4.26;100.00;98370.94;5031694;28;20037;-56
2023/12/07 11:01:42;;;;;;;389.80;224.98;;;;;;;4.63;100.00;98370.19;5033229;28;20587;-54
2023/12/07 11:04:14;;;;;;;407.63;225.02;;;;;;;4.78;100.00;98370.59;5033940;28;20771;-55
2023/12/07 11:06:41;;;;;;;387.13;219.57;;;;;;;5.15;100.00;98370.66;5032897;28;20029;-54
2023/12/07 11:09:12;;;;;;;431.88;213.43;;;;;;;5.12;100.00;98372.28;5032705;28;20032;-56
2023/12/07 11:11:50;;;;;;;381.92;220.52;;;;;;;5.38;100.00;98364.31;5031550;28;20629;-56